Time;durP1;ratioP1;P1;durP2;ratioP2;P2;SDS_P1;SDS_P2;PMS_P1;PMS_P2;Temp;Humidity;BMP_temperature;BMP_pressure;BME280_temperature;BME280_humidity;BME280_pressure;Samples;Min_cycle;Max_cycle;Signal;HPM_P1;HPM_P2
2023/06/17 00:00:42;;;;;;;9.17;8.27;;;;;;;;;;5093979;28;20453;-58
2023/06/17 00:03:09;;;;;;;9.20;8.50;;;;;;;;;;5093913;28;20563;-58
2023/06/17 00:05:36;;;;;;;9.30;8.60;;;;;;;;;;5093796;28;20448;-58
2023/06/17 00:08:03;;;;;;;9.60;8.80;;;;;;;;;;5093346;28;20965;-58
2023/06/17 00:10:30;;;;;;;8.90;8.20;;;;;;;;;;5093616;28;20841;-58
2023/06/17 00:12:58;;;;;;;9.47;8.50;;;;;;;;;;5093715;28;20481;-58
2023/06/17 00:15:25;;;;;;;9.60;8.70;;;;;;;;;;5093713;28;20457;-58
2023/06/17 00:17:53;;;;;;;8.40;7.70;;;;;;;;;;5093593;28;20455;-58
2023/06/17 00:20:23;;;;;;;9.70;8.90;;;;;;;;;;5093064;28;20454;-58
2023/06/17 00:22:50;;;;;;;10.07;9.27;;;;;;;;;;5093529;28;20449;-58
2023/06/17 00:25:16;;;;;;;8.87;8.10;;;;;;;;;;5093499;28;20455;-58
2023/06/17 00:27:43;;;;;;;11.03;10.03;;;;;;;;;;5093600;28;20453;-59
2023/06/17 00:30:11;;;;;;;11.67;10.50;;;;;;;;;;5093624;28;20505;-58
2023/06/17 00:32:39;;;;;;;10.53;9.73;;;;;;;;;;5093655;28;20470;-58
2023/06/17 00:35:08;;;;;;;10.60;9.70;;;;;;;;;;5093405;28;20499;-58
2023/06/17 00:37:35;;;;;;;12.23;10.93;;;;;;;;;;5093075;28;20457;-58
2023/06/17 00:40:05;;;;;;;11.37;10.47;;;;;;;;;;5093419;28;20873;-58
2023/06/17 00:42:34;;;;;;;10.30;9.43;;;;;;;;;;5093143;28;20507;-57
2023/06/17 00:45:01;;;;;;;10.80;9.90;;;;;;;;;;5093293;28;20855;-57
2023/06/17 00:47:28;;;;;;;11.43;10.27;;;;;;;;;;5093117;28;20537;-58
2023/06/17 00:49:55;;;;;;;10.23;9.30;;;;;;;;;;5093133;28;20453;-58
2023/06/17 00:52:23;;;;;;;12.20;11.20;;;;;;;;;;5092920;28;20484;-57
2023/06/17 00:54:52;;;;;;;11.80;10.80;;;;;;;;;;5093209;28;20483;-59
2023/06/17 00:57:19;;;;;;;11.23;10.33;;;;;;;;;;5093149;28;20467;-58
2023/06/17 00:59:46;;;;;;;11.37;10.50;;;;;;;;;;5093045;28;20453;-57
2023/06/17 01:02:13;;;;;;;12.40;11.20;;;;;;;;;;5092985;28;20451;-58
2023/06/17 01:04:42;;;;;;;10.57;9.63;;;;;;;;;;5092894;28;20883;-58
2023/06/17 01:07:16;;;;;;;11.70;10.70;;;;;;;;;;5093103;28;20459;-58
2023/06/17 01:09:47;;;;;;;12.17;11.10;;;;;;;;;;5093032;28;20455;-58
2023/06/17 01:12:15;;;;;;;13.30;12.00;;;;;;;;;;5092946;28;20478;-57
2023/06/17 01:14:42;;;;;;;12.23;11.23;;;;;;;;;;5092878;28;20449;-58
2023/06/17 01:17:12;;;;;;;12.70;11.50;;;;;;;;;;5092797;28;20541;-57
2023/06/17 01:19:39;;;;;;;12.70;11.60;;;;;;;;;;5093050;28;20460;-57
2023/06/17 01:22:08;;;;;;;12.50;11.20;;;;;;;;;;5093216;28;20451;-58
2023/06/17 01:24:37;;;;;;;13.53;12.20;;;;;;;;;;5092830;28;20452;-57
2023/06/17 01:27:04;;;;;;;12.80;11.77;;;;;;;;;;5092762;28;20544;-58
2023/06/17 01:29:32;;;;;;;11.20;10.30;;;;;;;;;;5092691;28;20539;-59
2023/06/17 01:32:00;;;;;;;11.57;10.70;;;;;;;;;;5094920;28;20448;-58
2023/06/17 01:34:30;;;;;;;12.17;11.17;;;;;;;;;;5096751;28;20453;-58
2023/06/17 01:36:58;;;;;;;11.70;10.80;;;;;;;;;;5096503;28;20453;-58
2023/06/17 01:39:27;;;;;;;12.63;11.63;;;;;;;;;;5096471;28;20457;-58
2023/06/17 01:41:56;;;;;;;12.10;11.10;;;;;;;;;;5096574;28;20553;-58
2023/06/17 01:44:24;;;;;;;10.87;9.97;;;;;;;;;;5096434;28;20448;-58
2023/06/17 01:46:51;;;;;;;10.67;9.77;;;;;;;;;;5096586;28;20445;-58
2023/06/17 01:49:18;;;;;;;11.63;10.53;;;;;;;;;;5096552;28;20445;-58
2023/06/17 01:51:45;;;;;;;11.90;10.87;;;;;;;;;;5096473;28;20467;-58
2023/06/17 01:54:11;;;;;;;11.53;10.53;;;;;;;;;;5096195;28;20995;-58
2023/06/17 01:56:38;;;;;;;11.53;10.63;;;;;;;;;;5096195;28;20499;-58
2023/06/17 01:59:07;;;;;;;10.43;9.63;;;;;;;;;;5096160;28;20531;-58
2023/06/17 02:01:33;;;;;;;13.00;11.97;;;;;;;;;;5096317;28;20820;-58
2023/06/17 02:04:00;;;;;;;12.60;11.50;;;;;;;;;;5096490;28;20452;-58
2023/06/17 02:06:27;;;;;;;11.00;10.00;;;;;;;;;;5096169;28;20545;-58
2023/06/17 02:08:55;;;;;;;13.87;12.67;;;;;;;;;;5096028;28;21007;-58
2023/06/17 02:11:22;;;;;;;12.50;11.33;;;;;;;;;;5095997;28;20436;-58
2023/06/17 02:13:49;;;;;;;11.33;10.37;;;;;;;;;;5096153;28;20514;-58
2023/06/17 02:16:17;;;;;;;11.30;10.50;;;;;;;;;;5096000;28;20452;-58
2023/06/17 02:18:45;;;;;;;13.50;12.30;;;;;;;;;;5095916;28;20454;-58
2023/06/17 02:21:12;;;;;;;12.23;11.20;;;;;;;;;;5095762;28;20447;-58
2023/06/17 02:23:38;;;;;;;11.37;10.37;;;;;;;;;;5095764;28;20453;-58
2023/06/17 02:26:05;;;;;;;12.80;11.80;;;;;;;;;;5095563;28;20891;-58
2023/06/17 02:28:32;;;;;;;13.13;11.93;;;;;;;;;;5095809;28;20477;-58
2023/06/17 02:30:59;;;;;;;12.70;11.50;;;;;;;;;;5095751;28;20541;-58
2023/06/17 02:33:27;;;;;;;12.20;11.00;;;;;;;;;;5095576;28;20483;-57
2023/06/17 02:35:54;;;;;;;11.93;10.87;;;;;;;;;;5095519;28;20460;-58
2023/06/17 02:38:24;;;;;;;12.80;11.70;;;;;;;;;;5095445;28;20545;-58
2023/06/17 02:40:51;;;;;;;13.53;12.10;;;;;;;;;;5095572;28;20728;-58
2023/06/17 02:43:18;;;;;;;13.20;11.90;;;;;;;;;;5095015;28;20445;-58
2023/06/17 02:45:45;;;;;;;12.33;11.30;;;;;;;;;;5095419;28;20445;-58
2023/06/17 02:48:12;;;;;;;12.80;11.73;;;;;;;;;;5095411;28;20855;-58
2023/06/17 02:50:40;;;;;;;11.63;10.63;;;;;;;;;;5095229;28;20455;-58
2023/06/17 02:53:07;;;;;;;10.90;10.10;;;;;;;;;;5094989;28;20508;-57
2023/06/17 02:55:34;;;;;;;11.70;10.80;;;;;;;;;;5094880;28;20987;-58
2023/06/17 02:58:01;;;;;;;17.47;12.60;;;;;;;;;;5095177;28;20545;-58
2023/06/17 03:00:28;;;;;;;13.10;12.00;;;;;;;;;;5095177;28;20460;-58
2023/06/17 03:02:56;;;;;;;12.73;11.53;;;;;;;;;;5094994;28;20556;-58
2023/06/17 03:05:23;;;;;;;12.30;11.10;;;;;;;;;;5095121;28;20928;-58
2023/06/17 03:07:53;;;;;;;13.97;12.60;;;;;;;;;;5095134;28;20851;-58
2023/06/17 03:10:20;;;;;;;14.03;12.73;;;;;;;;;;5095018;28;20540;-57
2023/06/17 03:12:47;;;;;;;12.27;11.17;;;;;;;;;;5094869;28;20484;-59
2023/06/17 03:15:17;;;;;;;13.43;12.07;;;;;;;;;;5094792;28;20551;-57
2023/06/17 03:17:44;;;;;;;15.03;13.63;;;;;;;;;;5094686;28;20467;-57
2023/06/17 03:20:11;;;;;;;13.90;12.70;;;;;;;;;;5094563;28;20453;-57
2023/06/17 03:22:38;;;;;;;15.00;13.70;;;;;;;;;;5094834;28;20631;-57
2023/06/17 03:25:07;;;;;;;13.80;12.50;;;;;;;;;;5094673;28;20543;-57
2023/06/17 03:27:35;;;;;;;14.30;13.00;;;;;;;;;;5094522;28;20476;-57
2023/06/17 03:30:02;;;;;;;12.97;11.87;;;;;;;;;;5094770;28;20485;-57
2023/06/17 03:32:29;;;;;;;14.13;12.93;;;;;;;;;;5094336;28;20497;-58
2023/06/17 03:34:56;;;;;;;14.00;12.80;;;;;;;;;;5094822;28;20449;-58
2023/06/17 03:37:24;;;;;;;14.03;12.73;;;;;;;;;;5094233;28;20948;-58
2023/06/17 03:39:51;;;;;;;14.40;13.10;;;;;;;;;;5094414;28;20452;-58
2023/06/17 03:42:19;;;;;;;13.60;12.40;;;;;;;;;;5094426;28;20956;-57
2023/06/17 03:44:46;;;;;;;13.33;12.23;;;;;;;;;;5094161;28;20554;-57
2023/06/17 03:47:12;;;;;;;13.10;11.90;;;;;;;;;;5094075;28;20531;-57
2023/06/17 03:49:39;;;;;;;12.73;11.53;;;;;;;;;;5094335;28;20452;-57
2023/06/17 03:52:07;;;;;;;14.83;13.33;;;;;;;;;;5094175;28;20884;-57
2023/06/17 03:54:34;;;;;;;14.33;12.93;;;;;;;;;;5093093;28;20913;-58
2023/06/17 03:57:01;;;;;;;12.47;11.37;;;;;;;;;;5093957;28;20545;-58
2023/06/17 03:59:29;;;;;;;13.63;12.33;;;;;;;;;;5094189;28;20455;-58
2023/06/17 04:01:57;;;;;;;14.10;12.97;;;;;;;;;;5093737;28;20963;-58
2023/06/17 04:04:28;;;;;;;12.70;11.60;;;;;;;;;;5094024;28;20451;-58
2023/06/17 04:06:55;;;;;;;11.97;10.97;;;;;;;;;;5093941;28;20533;-58
2023/06/17 04:09:22;;;;;;;14.53;13.33;;;;;;;;;;5093997;28;20482;-58
2023/06/17 04:11:49;;;;;;;13.90;12.60;;;;;;;;;;5094272;28;20451;-58
2023/06/17 04:14:16;;;;;;;12.70;11.60;;;;;;;;;;5093694;28;20990;-59
2023/06/17 04:16:44;;;;;;;11.30;10.30;;;;;;;;;;5093583;28;20453;-58
2023/06/17 04:19:13;;;;;;;12.70;11.40;;;;;;;;;;5093778;28;20453;-59
2023/06/17 04:21:40;;;;;;;11.23;10.33;;;;;;;;;;5093700;28;20453;-58
2023/06/17 04:24:07;;;;;;;12.23;11.03;;;;;;;;;;5093626;28;20488;-59
2023/06/17 04:26:35;;;;;;;12.13;11.13;;;;;;;;;;5093525;28;20786;-59
2023/06/17 04:29:01;;;;;;;11.47;10.37;;;;;;;;;;5093638;28;20514;-60
2023/06/17 04:31:29;;;;;;;12.73;11.50;;;;;;;;;;5093528;28;20449;-59
2023/06/17 04:33:59;;;;;;;11.57;10.67;;;;;;;;;;5093258;28;20495;-59
2023/06/17 04:36:27;;;;;;;11.73;10.73;;;;;;;;;;5093355;28;20459;-59
2023/06/17 04:38:54;;;;;;;12.40;11.40;;;;;;;;;;5093450;28;20550;-59
2023/06/17 04:41:21;;;;;;;13.10;12.00;;;;;;;;;;5093214;28;20802;-60
2023/06/17 04:43:49;;;;;;;11.93;10.83;;;;;;;;;;5093357;28;20498;-59
2023/06/17 04:46:17;;;;;;;11.60;10.50;;;;;;;;;;5093358;28;20854;-60
2023/06/17 04:48:44;;;;;;;13.47;12.37;;;;;;;;;;5093369;28;20481;-59
2023/06/17 04:51:13;;;;;;;12.03;11.07;;;;;;;;;;5093183;28;20451;-60
2023/06/17 04:53:40;;;;;;;11.90;10.80;;;;;;;;;;5093011;28;20465;-60
2023/06/17 04:56:07;;;;;;;12.87;11.63;;;;;;;;;;5092911;28;20493;-59
2023/06/17 04:58:34;;;;;;;13.07;11.97;;;;;;;;;;5093446;28;20459;-60
2023/06/17 05:01:01;;;;;;;13.40;12.10;;;;;;;;;;5093138;28;20449;-59
2023/06/17 05:03:28;;;;;;;11.93;10.83;;;;;;;;;;5093105;28;21010;-59
2023/06/17 05:05:55;;;;;;;13.20;12.10;;;;;;;;;;5095465;28;20458;-60
2023/06/17 05:08:24;;;;;;;14.27;12.53;;;;;;;;;;5097235;28;20812;-60
2023/06/17 05:10:51;;;;;;;14.87;12.20;;;;;;;;;;5097486;28;20952;-59
2023/06/17 05:13:18;;;;;;;13.50;12.30;;;;;;;;;;5097432;28;20860;-60
2023/06/17 05:15:45;;;;;;;14.30;13.00;;;;;;;;;;5097128;28;20507;-59
2023/06/17 05:18:12;;;;;;;12.70;11.60;;;;;;;;;;5097341;28;20481;-59
2023/06/17 05:20:39;;;;;;;11.63;10.73;;;;;;;;;;5097054;28;20510;-59
2023/06/17 05:23:06;;;;;;;15.03;13.63;;;;;;;;;;5096771;28;20456;-59
2023/06/17 05:25:35;;;;;;;13.80;12.70;;;;;;;;;;5096950;28;20445;-59
2023/06/17 05:28:05;;;;;;;16.73;14.93;;;;;;;;;;5096960;28;20452;-59
2023/06/17 05:30:32;;;;;;;12.47;11.40;;;;;;;;;;5097014;28;20449;-59
2023/06/17 05:33:01;;;;;;;15.10;13.80;;;;;;;;;;5096716;28;20547;-59
2023/06/17 05:35:28;;;;;;;13.90;12.80;;;;;;;;;;5096646;28;20923;-60
2023/06/17 05:37:55;;;;;;;14.20;13.00;;;;;;;;;;5096548;28;20457;-59
2023/06/17 05:40:22;;;;;;;14.43;13.13;;;;;;;;;;5096855;28;20501;-59
2023/06/17 05:42:50;;;;;;;13.40;12.30;;;;;;;;;;5096688;28;20855;-59
2023/06/17 05:45:17;;;;;;;12.10;11.00;;;;;;;;;;5096935;28;20465;-59
2023/06/17 05:47:45;;;;;;;13.63;12.60;;;;;;;;;;5096547;28;20561;-59
2023/06/17 05:50:12;;;;;;;14.00;12.67;;;;;;;;;;5096369;28;20456;-59
2023/06/17 05:52:39;;;;;;;13.27;12.10;;;;;;;;;;5096882;28;20489;-59
2023/06/17 05:55:06;;;;;;;13.00;11.90;;;;;;;;;;5096176;28;20608;-59
2023/06/17 05:57:35;;;;;;;13.67;12.67;;;;;;;;;;5096281;28;20940;-59
2023/06/17 06:00:04;;;;;;;13.83;12.53;;;;;;;;;;5096241;28;20931;-59
2023/06/17 06:02:31;;;;;;;14.60;13.30;;;;;;;;;;5096241;28;20506;-59
2023/06/17 06:04:58;;;;;;;16.80;13.90;;;;;;;;;;5096349;28;20446;-59
2023/06/17 06:07:27;;;;;;;15.07;13.57;;;;;;;;;;5096326;28;20534;-59
2023/06/17 06:09:54;;;;;;;13.30;12.20;;;;;;;;;;5096208;28;20900;-59
2023/06/17 06:12:21;;;;;;;13.40;12.30;;;;;;;;;;5096202;28;20536;-60
2023/06/17 06:14:49;;;;;;;12.57;11.57;;;;;;;;;;5096021;28;20492;-59
2023/06/17 06:17:17;;;;;;;12.07;11.13;;;;;;;;;;5095200;28;20449;-60
2023/06/17 06:19:44;;;;;;;12.60;11.60;;;;;;;;;;5096033;28;20454;-60
2023/06/17 06:22:11;;;;;;;13.27;12.10;;;;;;;;;;5095948;28;20449;-60
2023/06/17 06:24:38;;;;;;;12.37;11.27;;;;;;;;;;5096062;28;20524;-59
2023/06/17 06:27:06;;;;;;;11.97;10.80;;;;;;;;;;5095709;28;20461;-60
2023/06/17 06:29:33;;;;;;;18.53;11.17;;;;;;;;;;5095674;28;20449;-60
2023/06/17 06:32:00;;;;;;;12.00;10.93;;;;;;;;;;5095553;28;20468;-60
2023/06/17 06:34:28;;;;;;;12.20;11.20;;;;;;;;;;5095436;28;20471;-60
2023/06/17 06:36:56;;;;;;;12.67;11.40;;;;;;;;;;5095648;28;20469;-60
2023/06/17 06:39:23;;;;;;;13.90;12.33;;;;;;;;;;5095560;28;20449;-60
2023/06/17 06:41:50;;;;;;;12.70;11.50;;;;;;;;;;5095342;28;20503;-60
2023/06/17 06:44:17;;;;;;;12.57;11.53;;;;;;;;;;5095353;28;20965;-60
2023/06/17 06:46:45;;;;;;;12.40;11.30;;;;;;;;;;5095288;28;20462;-60
2023/06/17 06:49:12;;;;;;;10.90;9.90;;;;;;;;;;5095388;28;20456;-60
2023/06/17 06:51:40;;;;;;;12.67;11.40;;;;;;;;;;5095111;28;20937;-60
2023/06/17 06:54:07;;;;;;;11.17;10.10;;;;;;;;;;5095197;28;21011;-60
2023/06/17 06:56:34;;;;;;;13.03;11.80;;;;;;;;;;5095028;28;20475;-60
2023/06/17 06:59:02;;;;;;;11.87;10.67;;;;;;;;;;5094977;28;20461;-60
2023/06/17 07:01:30;;;;;;;12.27;11.03;;;;;;;;;;5095087;28;20449;-60
2023/06/17 07:03:57;;;;;;;11.70;10.80;;;;;;;;;;5095134;28;20465;-59
2023/06/17 07:06:24;;;;;;;12.03;10.87;;;;;;;;;;5095012;28;20450;-60
2023/06/17 07:08:53;;;;;;;12.00;11.10;;;;;;;;;;5094908;28;20490;-60
2023/06/17 07:11:19;;;;;;;11.93;10.90;;;;;;;;;;5094817;28;20439;-60
2023/06/17 07:13:46;;;;;;;12.03;10.93;;;;;;;;;;5095069;28;20441;-59
2023/06/17 07:16:14;;;;;;;10.73;9.40;;;;;;;;;;5094968;28;20965;-60
2023/06/17 07:18:41;;;;;;;11.40;10.40;;;;;;;;;;5095092;28;20532;-60
2023/06/17 07:21:10;;;;;;;13.10;11.87;;;;;;;;;;5094663;28;20445;-60
2023/06/17 07:23:37;;;;;;;11.80;10.80;;;;;;;;;;5094448;28;20935;-60
2023/06/17 07:26:05;;;;;;;14.53;13.13;;;;;;;;;;5094430;28;20447;-59
2023/06/17 07:28:33;;;;;;;12.97;11.67;;;;;;;;;;5094775;28;20552;-60
2023/06/17 07:31:00;;;;;;;13.10;11.80;;;;;;;;;;5094662;28;20548;-58
2023/06/17 07:33:28;;;;;;;12.37;11.33;;;;;;;;;;5094363;28;20450;-59
2023/06/17 07:35:55;;;;;;;13.27;12.27;;;;;;;;;;5094146;28;20498;-59
2023/06/17 07:38:23;;;;;;;14.43;13.13;;;;;;;;;;5094428;28;20865;-59
2023/06/17 07:40:51;;;;;;;13.80;12.33;;;;;;;;;;5094387;28;20451;-59
2023/06/17 07:43:19;;;;;;;16.20;12.60;;;;;;;;;;5094183;28;20456;-59
2023/06/17 07:45:46;;;;;;;15.17;13.63;;;;;;;;;;5094235;28;20976;-59
2023/06/17 07:48:13;;;;;;;14.80;13.50;;;;;;;;;;5094145;28;20949;-59
2023/06/17 07:50:41;;;;;;;11.67;10.80;;;;;;;;;;5094085;28;20507;-59
2023/06/17 07:53:07;;;;;;;16.47;12.63;;;;;;;;;;5094142;28;20485;-59
2023/06/17 07:55:35;;;;;;;12.73;11.50;;;;;;;;;;5093997;28;20493;-59
2023/06/17 07:58:02;;;;;;;14.10;12.90;;;;;;;;;;5093872;28;20449;-58
2023/06/17 08:00:31;;;;;;;13.00;11.90;;;;;;;;;;5093949;28;20991;-58
2023/06/17 08:02:58;;;;;;;14.87;13.40;;;;;;;;;;5093833;28;20457;-58
2023/06/17 08:05:25;;;;;;;15.20;13.67;;;;;;;;;;5093823;28;20449;-58
2023/06/17 08:07:52;;;;;;;14.33;13.13;;;;;;;;;;5093719;28;20493;-58
2023/06/17 08:10:19;;;;;;;18.33;16.53;;;;;;;;;;5093960;28;20456;-58
2023/06/17 08:12:47;;;;;;;16.93;14.20;;;;;;;;;;5093896;28;20450;-59
2023/06/17 08:15:14;;;;;;;17.67;16.13;;;;;;;;;;5093499;28;20477;-59
2023/06/17 08:17:43;;;;;;;16.83;15.33;;;;;;;;;;5093892;28;20537;-59
2023/06/17 08:20:11;;;;;;;19.07;17.10;;;;;;;;;;5093673;28;20486;-59
2023/06/17 08:22:38;;;;;;;17.50;16.00;;;;;;;;;;5093523;28;20999;-59
2023/06/17 08:25:05;;;;;;;19.30;17.50;;;;;;;;;;5093255;28;20438;-59
2023/06/17 08:27:33;;;;;;;18.57;16.97;;;;;;;;;;5093537;28;20534;-59
2023/06/17 08:30:00;;;;;;;18.73;17.20;;;;;;;;;;5093447;28;20453;-59
2023/06/17 08:32:27;;;;;;;18.50;17.00;;;;;;;;;;5093278;28;20496;-59
2023/06/17 08:34:56;;;;;;;17.40;15.90;;;;;;;;;;5093194;28;20485;-58
2023/06/17 08:37:23;;;;;;;16.40;15.00;;;;;;;;;;5093495;28;20812;-58
2023/06/17 08:39:50;;;;;;;19.60;17.90;;;;;;;;;;5093003;28;20450;-59
2023/06/17 08:42:17;;;;;;;18.80;17.00;;;;;;;;;;5093292;28;20447;-59
2023/06/17 08:44:45;;;;;;;18.93;17.33;;;;;;;;;;5093065;28;20453;-58
2023/06/17 08:47:15;;;;;;;18.47;16.87;;;;;;;;;;5093069;28;20964;-59
2023/06/17 08:49:43;;;;;;;17.20;15.70;;;;;;;;;;5093069;28;20451;-58
2023/06/17 08:52:13;;;;;;;17.13;15.80;;;;;;;;;;5093197;28;20446;-58
2023/06/17 08:54:41;;;;;;;16.80;15.20;;;;;;;;;;5093159;28;20481;-59
2023/06/17 08:57:10;;;;;;;16.10;14.80;;;;;;;;;;5093099;28;20449;-59
2023/06/17 08:59:37;;;;;;;18.30;16.63;;;;;;;;;;5093135;28;20454;-58
2023/06/17 09:02:05;;;;;;;16.97;15.50;;;;;;;;;;5093085;28;20503;-58
2023/06/17 09:04:32;;;;;;;17.47;15.37;;;;;;;;;;5093121;28;20535;-59
2023/06/17 09:06:59;;;;;;;15.77;14.40;;;;;;;;;;5093040;28;20498;-58
2023/06/17 09:09:27;;;;;;;17.67;16.20;;;;;;;;;;5093216;28;20453;-59
2023/06/17 09:11:54;;;;;;;17.13;15.70;;;;;;;;;;5092917;28;20794;-58
2023/06/17 09:14:24;;;;;;;16.40;15.00;;;;;;;;;;5092823;28;20454;-58
2023/06/17 09:16:51;;;;;;;17.60;16.03;;;;;;;;;;5093178;28;20454;-58
2023/06/17 09:19:19;;;;;;;15.23;13.83;;;;;;;;;;5093007;28;20492;-59
2023/06/17 09:21:48;;;;;;;16.10;14.40;;;;;;;;;;5092985;28;20457;-59
2023/06/17 09:24:15;;;;;;;15.03;13.77;;;;;;;;;;5093005;28;20543;-59
2023/06/17 09:26:44;;;;;;;14.63;13.20;;;;;;;;;;5092691;28;20453;-59
2023/06/17 09:29:11;;;;;;;14.00;12.70;;;;;;;;;;5093117;28;20936;-59
2023/06/17 09:31:48;;;;;;;13.33;12.00;;;;;;;;;;5092886;28;20445;-59
2023/06/17 09:34:15;;;;;;;13.43;12.00;;;;;;;;;;5092982;28;20453;-59
2023/06/17 09:36:42;;;;;;;12.83;11.63;;;;;;;;;;5092719;28;20485;-59
2023/06/17 09:39:10;;;;;;;14.30;13.10;;;;;;;;;;5092719;28;20804;-59
2023/06/17 09:41:38;;;;;;;13.47;12.37;;;;;;;;;;5092788;28;20808;-59
2023/06/17 09:44:06;;;;;;;14.37;13.10;;;;;;;;;;5092806;28;20940;-60
2023/06/17 09:46:38;;;;;;;14.40;12.83;;;;;;;;;;5092851;28;20527;-60
2023/06/17 09:49:09;;;;;;;15.47;14.07;;;;;;;;;;5092677;28;20449;-59
2023/06/17 09:51:37;;;;;;;15.00;13.60;;;;;;;;;;5092604;28;20453;-59
2023/06/17 09:54:05;;;;;;;13.43;12.23;;;;;;;;;;5096378;28;20506;-59
2023/06/17 09:56:33;;;;;;;14.10;12.90;;;;;;;;;;5096161;28;20489;-60
2023/06/17 09:59:00;;;;;;;13.97;12.57;;;;;;;;;;5096318;28;20548;-59
2023/06/17 10:01:30;;;;;;;13.77;12.57;;;;;;;;;;5096375;28;20499;-59
2023/06/17 10:03:58;;;;;;;14.13;12.90;;;;;;;;;;5096255;28;20452;-59
2023/06/17 10:06:27;;;;;;;16.70;12.73;;;;;;;;;;5096065;28;20869;-59
2023/06/17 10:08:54;;;;;;;14.50;13.13;;;;;;;;;;5095969;28;20940;-60
2023/06/17 10:11:21;;;;;;;12.87;11.87;;;;;;;;;;5096229;28;20937;-60
2023/06/17 10:13:53;;;;;;;13.00;12.00;;;;;;;;;;5096125;28;20472;-59
2023/06/17 10:16:21;;;;;;;12.23;11.23;;;;;;;;;;5095837;28;20482;-60
2023/06/17 10:18:51;;;;;;;11.60;10.70;;;;;;;;;;5095991;28;20496;-60
2023/06/17 10:21:19;;;;;;;10.53;9.73;;;;;;;;;;5095807;28;20822;-59
2023/06/17 10:23:47;;;;;;;11.13;9.80;;;;;;;;;;5095916;28;20928;-59
2023/06/17 10:26:15;;;;;;;10.50;9.70;;;;;;;;;;5095649;28;20447;-59
2023/06/17 10:28:46;;;;;;;11.63;10.63;;;;;;;;;;5095814;28;20497;-59
2023/06/17 10:31:24;;;;;;;10.70;9.80;;;;;;;;;;5095595;28;20442;-60
2023/06/17 10:33:53;;;;;;;9.83;9.07;;;;;;;;;;5095946;28;20453;-59
2023/06/17 10:36:21;;;;;;;11.20;10.10;;;;;;;;;;5095545;28;20601;-60
2023/06/17 10:38:54;;;;;;;10.93;10.13;;;;;;;;;;5095467;28;20458;-59
2023/06/17 10:41:21;;;;;;;11.73;10.40;;;;;;;;;;5095410;28;20449;-60
2023/06/17 10:43:49;;;;;;;10.63;9.83;;;;;;;;;;5095344;28;20481;-59
2023/06/17 10:46:24;;;;;;;12.10;9.33;;;;;;;;;;5095495;28;20451;-59
2023/06/17 10:48:52;;;;;;;10.27;9.57;;;;;;;;;;5095572;28;20438;-59
2023/06/17 10:51:23;;;;;;;9.80;9.00;;;;;;;;;;5095349;28;20802;-60
2023/06/17 10:53:51;;;;;;;9.47;8.77;;;;;;;;;;5095143;28;20450;-59
2023/06/17 10:56:18;;;;;;;8.10;7.50;;;;;;;;;;5094799;28;20479;-59
2023/06/17 10:58:46;;;;;;;10.23;9.40;;;;;;;;;;5095351;28;20458;-60
2023/06/17 11:01:13;;;;;;;10.03;9.13;;;;;;;;;;5094940;28;20546;-59
2023/06/17 11:03:40;;;;;;;9.87;9.10;;;;;;;;;;5094787;28;20815;-59
2023/06/17 11:06:10;;;;;;;9.53;8.73;;;;;;;;;;5095386;28;20829;-60
2023/06/17 11:08:38;;;;;;;9.57;8.80;;;;;;;;;;5094903;28;20486;-59
2023/06/17 11:11:09;;;;;;;11.57;9.23;;;;;;;;;;5095024;28;20806;-59
2023/06/17 11:13:36;;;;;;;10.47;9.57;;;;;;;;;;5095225;28;20442;-59
2023/06/17 11:16:03;;;;;;;10.13;9.13;;;;;;;;;;5094739;28;20479;-60
2023/06/17 11:18:30;;;;;;;8.90;8.20;;;;;;;;;;5094838;28;20505;-59
2023/06/17 11:20:57;;;;;;;9.07;8.33;;;;;;;;;;5094684;28;20443;-59
2023/06/17 11:23:26;;;;;;;10.20;8.60;;;;;;;;;;5094613;28;20447;-60
2023/06/17 11:25:54;;;;;;;9.20;8.60;;;;;;;;;;5094621;28;20485;-59
2023/06/17 11:28:21;;;;;;;8.80;8.20;;;;;;;;;;5094680;28;20446;-59
2023/06/17 11:30:48;;;;;;;8.77;7.97;;;;;;;;;;5094767;28;20454;-59
2023/06/17 11:33:16;;;;;;;9.00;8.30;;;;;;;;;;5094402;28;20490;-59
2023/06/17 11:35:44;;;;;;;7.50;6.90;;;;;;;;;;5094337;28;20574;-59
2023/06/17 11:38:11;;;;;;;8.27;7.67;;;;;;;;;;5094424;28;20540;-59
2023/06/17 11:40:42;;;;;;;7.13;6.63;;;;;;;;;;5094493;28;20470;-60
2023/06/17 11:43:09;;;;;;;6.60;6.20;;;;;;;;;;5094525;28;20451;-59
2023/06/17 11:45:37;;;;;;;6.63;6.13;;;;;;;;;;5094209;28;20465;-59
2023/06/17 11:48:05;;;;;;;7.57;6.90;;;;;;;;;;5094073;28;20458;-59
2023/06/17 11:50:32;;;;;;;7.67;7.17;;;;;;;;;;5093957;28;20462;-59
2023/06/17 11:52:59;;;;;;;6.90;6.30;;;;;;;;;;5093982;28;20961;-59
2023/06/17 11:55:36;;;;;;;6.40;5.97;;;;;;;;;;5094098;28;20573;-59
2023/06/17 11:58:06;;;;;;;7.03;6.60;;;;;;;;;;5094209;28;20447;-59
2023/06/17 12:00:35;;;;;;;7.37;6.87;;;;;;;;;;5094082;28;20447;-60
2023/06/17 12:03:04;;;;;;;7.30;6.80;;;;;;;;;;5093754;28;20443;-59
2023/06/17 12:05:32;;;;;;;10.40;7.90;;;;;;;;;;5093994;28;20447;-59
2023/06/17 12:08:00;;;;;;;7.53;6.93;;;;;;;;;;5093493;28;20447;-59
2023/06/17 12:10:27;;;;;;;7.80;7.10;;;;;;;;;;5093885;28;20541;-59
2023/06/17 12:12:55;;;;;;;6.53;6.23;;;;;;;;;;5093603;28;20457;-60
2023/06/17 12:15:28;;;;;;;6.27;5.67;;;;;;;;;;5092858;28;20493;-59
2023/06/17 12:17:56;;;;;;;6.40;5.90;;;;;;;;;;5093632;28;20447;-59
2023/06/17 12:20:23;;;;;;;6.90;6.40;;;;;;;;;;5093780;28;20807;-59
2023/06/17 12:22:51;;;;;;;6.53;6.03;;;;;;;;;;5093484;28;20496;-59
2023/06/17 12:25:18;;;;;;;7.33;6.73;;;;;;;;;;5093504;28;20447;-59
2023/06/17 12:27:45;;;;;;;6.50;5.97;;;;;;;;;;5093679;28;20450;-59
2023/06/17 12:30:13;;;;;;;6.03;5.50;;;;;;;;;;5093338;28;20479;-58
2023/06/17 12:32:42;;;;;;;4.87;4.57;;;;;;;;;;5093563;28;20450;-58
2023/06/17 12:35:11;;;;;;;6.20;4.97;;;;;;;;;;5093528;28;20768;-59
2023/06/17 12:37:41;;;;;;;8.20;5.43;;;;;;;;;;5093283;28;20816;-59
2023/06/17 12:40:09;;;;;;;5.07;4.77;;;;;;;;;;5093239;28;20942;-58
2023/06/17 12:42:36;;;;;;;6.80;5.40;;;;;;;;;;5093288;28;20486;-58
2023/06/17 12:45:03;;;;;;;5.73;5.20;;;;;;;;;;5093374;28;20876;-59
2023/06/17 12:47:31;;;;;;;6.03;5.53;;;;;;;;;;5093308;28;20816;-59
2023/06/17 12:49:59;;;;;;;7.33;6.50;;;;;;;;;;5093360;28;20454;-59
2023/06/17 12:52:27;;;;;;;7.00;6.37;;;;;;;;;;5093129;28;20459;-58
2023/06/17 12:54:59;;;;;;;8.00;7.20;;;;;;;;;;5092931;28;20479;-58
2023/06/17 12:57:26;;;;;;;7.60;6.73;;;;;;;;;;5092969;28;20485;-58
2023/06/17 12:59:53;;;;;;;7.80;7.20;;;;;;;;;;5093199;28;20452;-58
2023/06/17 13:02:20;;;;;;;6.57;6.17;;;;;;;;;;5093384;28;20461;-59
2023/06/17 13:04:47;;;;;;;6.60;6.00;;;;;;;;;;5093157;28;20483;-59
2023/06/17 13:07:16;;;;;;;6.70;6.13;;;;;;;;;;5092943;28;20450;-58
2023/06/17 13:09:43;;;;;;;7.97;7.27;;;;;;;;;;5092933;28;20455;-59
2023/06/17 13:12:11;;;;;;;7.27;6.67;;;;;;;;;;5093091;28;20447;-58
2023/06/17 13:14:38;;;;;;;8.07;7.27;;;;;;;;;;5093020;28;20450;-58
2023/06/17 13:17:05;;;;;;;6.47;5.97;;;;;;;;;;5092804;28;20483;-57
2023/06/17 13:19:32;;;;;;;7.17;6.57;;;;;;;;;;5092816;28;20576;-58
2023/06/17 13:21:59;;;;;;;7.10;6.53;;;;;;;;;;5093100;28;20451;-58
2023/06/17 13:24:28;;;;;;;6.87;6.37;;;;;;;;;;5092763;28;20462;-58
2023/06/17 13:26:55;;;;;;;6.50;6.07;;;;;;;;;;5095063;28;20484;-59
2023/06/17 13:29:23;;;;;;;7.07;6.47;;;;;;;;;;5097088;28;20451;-58
2023/06/17 13:31:50;;;;;;;5.87;5.37;;;;;;;;;;5096916;28;20453;-59
2023/06/17 13:34:17;;;;;;;6.73;6.10;;;;;;;;;;5096781;28;20843;-58
2023/06/17 13:36:46;;;;;;;7.60;6.37;;;;;;;;;;5096568;28;20819;-57
2023/06/17 13:39:13;;;;;;;6.47;6.03;;;;;;;;;;5096642;28;20507;-57
2023/06/17 13:41:41;;;;;;;6.53;6.10;;;;;;;;;;5096724;28;20458;-58
2023/06/17 13:44:08;;;;;;;7.13;6.43;;;;;;;;;;5096649;28;20453;-58
2023/06/17 13:46:35;;;;;;;6.33;5.93;;;;;;;;;;5096591;28;20457;-58
2023/06/17 13:49:02;;;;;;;5.07;4.73;;;;;;;;;;5096518;28;20446;-57
2023/06/17 13:51:29;;;;;;;5.40;4.90;;;;;;;;;;5096490;28;20470;-60
2023/06/17 13:53:56;;;;;;;4.53;4.23;;;;;;;;;;5096226;28;20484;-60
2023/06/17 13:56:24;;;;;;;5.47;4.93;;;;;;;;;;5096731;28;20562;-59
2023/06/17 13:58:52;;;;;;;4.80;4.50;;;;;;;;;;5096423;28;20460;-57
2023/06/17 14:01:19;;;;;;;5.83;4.87;;;;;;;;;;5096439;28;20451;-57
2023/06/17 14:03:48;;;;;;;5.47;5.00;;;;;;;;;;5096115;28;20472;-59
2023/06/17 14:06:15;;;;;;;5.03;4.50;;;;;;;;;;5096365;28;20520;-58
2023/06/17 14:08:42;;;;;;;4.40;4.07;;;;;;;;;;5096203;28;20447;-58
2023/06/17 14:11:09;;;;;;;4.80;4.50;;;;;;;;;;5096292;28;20488;-58
2023/06/17 14:13:36;;;;;;;4.67;4.23;;;;;;;;;;5096352;28;20839;-57
2023/06/17 14:16:04;;;;;;;5.00;4.53;;;;;;;;;;5095799;28;20508;-58
2023/06/17 14:18:31;;;;;;;4.70;4.40;;;;;;;;;;5095957;28;20450;-58
2023/06/17 14:20:58;;;;;;;4.80;4.50;;;;;;;;;;5096066;28;20818;-58
2023/06/17 14:23:25;;;;;;;5.13;4.73;;;;;;;;;;5095947;28;20447;-58
2023/06/17 14:25:52;;;;;;;4.70;4.40;;;;;;;;;;5095905;28;20917;-58